sensor_id;sensor_type;location;lat;lon;timestamp;temperature;humidity
45906;DHT22;31619;49.008;12.106;2022-10-22T00:01:23;11.50;99.90
45906;DHT22;31619;49.008;12.106;2022-10-22T00:03:49;11.60;99.90
45906;DHT22;31619;49.008;12.106;2022-10-22T00:06:15;11.60;99.90
45906;DHT22;31619;49.008;12.106;2022-10-22T00:08:40;11.60;99.90
45906;DHT22;31619;49.008;12.106;2022-10-22T00:11:12;11.60;99.90
45906;DHT22;31619;49.008;12.106;2022-10-22T00:13:38;11.60;99.90
45906;DHT22;31619;49.008;12.106;2022-10-22T00:16:04;11.60;99.90
45906;DHT22;31619;49.008;12.106;2022-10-22T00:18:29;11.60;99.90
45906;DHT22;31619;49.008;12.106;2022-10-22T00:20:55;11.60;99.90
45906;DHT22;31619;49.008;12.106;2022-10-22T00:23:21;11.50;99.90
45906;DHT22;31619;49.008;12.106;2022-10-22T00:25:47;11.50;99.90
45906;DHT22;31619;49.008;12.106;2022-10-22T00:28:12;11.50;99.90
45906;DHT22;31619;49.008;12.106;2022-10-22T00:30:39;11.50;99.90
45906;DHT22;31619;49.008;12.106;2022-10-22T00:33:05;11.40;99.90
45906;DHT22;31619;49.008;12.106;2022-10-22T00:35:31;11.40;99.90
45906;DHT22;31619;49.008;12.106;2022-10-22T00:37:57;11.40;99.90
45906;DHT22;31619;49.008;12.106;2022-10-22T00:40:23;11.50;99.90
45906;DHT22;31619;49.008;12.106;2022-10-22T00:42:49;11.60;99.90
45906;DHT22;31619;49.008;12.106;2022-10-22T00:45:18;11.50;99.90
45906;DHT22;31619;49.008;12.106;2022-10-22T00:47:49;11.40;99.90
45906;DHT22;31619;49.008;12.106;2022-10-22T00:52:56;11.50;99.90
45906;DHT22;31619;49.008;12.106;2022-10-22T00:55:24;11.40;99.90
45906;DHT22;31619;49.008;12.106;2022-10-22T00:57:51;11.30;99.90
45906;DHT22;31619;49.008;12.106;2022-10-22T01:00:19;11.40;99.90
45906;DHT22;31619;49.008;12.106;2022-10-22T01:02:45;11.40;99.90
45906;DHT22;31619;49.008;12.106;2022-10-22T01:05:12;11.40;99.90
45906;DHT22;31619;49.008;12.106;2022-10-22T01:07:42;11.40;99.90
45906;DHT22;31619;49.008;12.106;2022-10-22T01:13:59;11.40;99.90
45906;DHT22;31619;49.008;12.106;2022-10-22T01:16:25;11.50;99.90
45906;DHT22;31619;49.008;12.106;2022-10-22T01:22:21;11.40;99.90
45906;DHT22;31619;49.008;12.106;2022-10-22T01:30:10;11.30;99.90
45906;DHT22;31619;49.008;12.106;2022-10-22T01:32:47;11.30;99.90
45906;DHT22;31619;49.008;12.106;2022-10-22T01:35:21;11.40;99.90
45906;DHT22;31619;49.008;12.106;2022-10-22T01:37:53;11.50;99.90
45906;DHT22;31619;49.008;12.106;2022-10-22T01:40:20;11.40;99.90
45906;DHT22;31619;49.008;12.106;2022-10-22T01:43:14;11.40;99.90
45906;DHT22;31619;49.008;12.106;2022-10-22T01:45:56;11.40;99.90
45906;DHT22;31619;49.008;12.106;2022-10-22T01:57:26;11.50;99.90
45906;DHT22;31619;49.008;12.106;2022-10-22T02:00:04;11.50;99.90
45906;DHT22;31619;49.008;12.106;2022-10-22T02:02:45;11.50;99.90
45906;DHT22;31619;49.008;12.106;2022-10-22T02:05:14;11.50;99.90
45906;DHT22;31619;49.008;12.106;2022-10-22T02:07:51;11.50;99.90
45906;DHT22;31619;49.008;12.106;2022-10-22T02:10:19;11.50;99.90
45906;DHT22;31619;49.008;12.106;2022-10-22T02:12:48;11.40;99.90
45906;DHT22;31619;49.008;12.106;2022-10-22T02:15:17;11.40;99.90
45906;DHT22;31619;49.008;12.106;2022-10-22T02:17:45;11.40;99.90
45906;DHT22;31619;49.008;12.106;2022-10-22T02:20:29;11.40;99.90
45906;DHT22;31619;49.008;12.106;2022-10-22T02:22:56;11.40;99.90
45906;DHT22;31619;49.008;12.106;2022-10-22T02:25:26;11.30;99.90
45906;DHT22;31619;49.008;12.106;2022-10-22T02:28:03;11.30;99.90
45906;DHT22;31619;49.008;12.106;2022-10-22T02:30:35;11.30;99.90
45906;DHT22;31619;49.008;12.106;2022-10-22T02:35:33;11.40;99.90
45906;DHT22;31619;49.008;12.106;2022-10-22T02:38:00;11.40;99.90
45906;DHT22;31619;49.008;12.106;2022-10-22T02:40:27;11.40;99.90
45906;DHT22;31619;49.008;12.106;2022-10-22T02:42:54;11.30;99.90
45906;DHT22;31619;49.008;12.106;2022-10-22T02:45:20;11.30;99.90
45906;DHT22;31619;49.008;12.106;2022-10-22T02:47:49;11.20;99.90
45906;DHT22;31619;49.008;12.106;2022-10-22T02:50:15;11.20;99.90
45906;DHT22;31619;49.008;12.106;2022-10-22T02:52:41;11.10;99.90
45906;DHT22;31619;49.008;12.106;2022-10-22T02:55:07;11.10;99.90
45906;DHT22;31619;49.008;12.106;2022-10-22T02:57:33;11.10;99.90
45906;DHT22;31619;49.008;12.106;2022-10-22T02:59:59;11.10;99.90
45906;DHT22;31619;49.008;12.106;2022-10-22T03:02:25;11.20;99.90
45906;DHT22;31619;49.008;12.106;2022-10-22T03:04:50;11.20;99.90
45906;DHT22;31619;49.008;12.106;2022-10-22T03:07:16;11.20;99.90
45906;DHT22;31619;49.008;12.106;2022-10-22T03:09:44;11.20;99.90
45906;DHT22;31619;49.008;12.106;2022-10-22T03:12:10;11.20;99.90
45906;DHT22;31619;49.008;12.106;2022-10-22T03:14:36;11.10;99.90
45906;DHT22;31619;49.008;12.106;2022-10-22T03:17:02;11.10;99.90
45906;DHT22;31619;49.008;12.106;2022-10-22T03:19:28;11.00;99.90
45906;DHT22;31619;49.008;12.106;2022-10-22T03:22:06;11.10;99.90
45906;DHT22;31619;49.008;12.106;2022-10-22T03:24:37;11.00;99.90
45906;DHT22;31619;49.008;12.106;2022-10-22T03:27:03;11.10;99.90
45906;DHT22;31619;49.008;12.106;2022-10-22T03:29:31;11.10;99.90
45906;DHT22;31619;49.008;12.106;2022-10-22T03:32:01;11.10;99.90
45906;DHT22;31619;49.008;12.106;2022-10-22T03:34:27;11.20;99.90
45906;DHT22;31619;49.008;12.106;2022-10-22T03:36:52;11.20;99.90
45906;DHT22;31619;49.008;12.106;2022-10-22T03:39:20;11.20;99.90
45906;DHT22;31619;49.008;12.106;2022-10-22T03:41:47;11.20;99.90
45906;DHT22;31619;49.008;12.106;2022-10-22T03:44:26;11.30;99.90
45906;DHT22;31619;49.008;12.106;2022-10-22T03:46:53;11.40;99.90
45906;DHT22;31619;49.008;12.106;2022-10-22T03:49:18;11.40;99.90
45906;DHT22;31619;49.008;12.106;2022-10-22T03:51:44;11.30;99.90
45906;DHT22;31619;49.008;12.106;2022-10-22T03:54:10;11.20;99.90
45906;DHT22;31619;49.008;12.106;2022-10-22T03:56:35;11.30;99.90
45906;DHT22;31619;49.008;12.106;2022-10-22T03:59:01;11.30;99.90
45906;DHT22;31619;49.008;12.106;2022-10-22T04:01:29;11.30;99.90
45906;DHT22;31619;49.008;12.106;2022-10-22T04:03:56;11.30;99.90
45906;DHT22;31619;49.008;12.106;2022-10-22T04:06:22;11.30;99.90
45906;DHT22;31619;49.008;12.106;2022-10-22T04:08:48;11.40;99.90
45906;DHT22;31619;49.008;12.106;2022-10-22T04:11:14;11.30;99.90
45906;DHT22;31619;49.008;12.106;2022-10-22T04:13:41;11.30;99.90
45906;DHT22;31619;49.008;12.106;2022-10-22T04:16:15;11.30;99.90
45906;DHT22;31619;49.008;12.106;2022-10-22T04:18:42;11.30;99.90
45906;DHT22;31619;49.008;12.106;2022-10-22T04:21:09;11.40;99.90
45906;DHT22;31619;49.008;12.106;2022-10-22T04:23:36;11.40;99.90
45906;DHT22;31619;49.008;12.106;2022-10-22T04:26:04;11.40;99.90
45906;DHT22;31619;49.008;12.106;2022-10-22T04:28:30;11.40;99.90
45906;DHT22;31619;49.008;12.106;2022-10-22T04:30:56;11.40;99.90
45906;DHT22;31619;49.008;12.106;2022-10-22T04:33:22;11.50;99.90
45906;DHT22;31619;49.008;12.106;2022-10-22T04:35:48;11.40;99.90
45906;DHT22;31619;49.008;12.106;2022-10-22T04:38:14;11.50;99.90
45906;DHT22;31619;49.008;12.106;2022-10-22T04:40:39;11.40;99.90
45906;DHT22;31619;49.008;12.106;2022-10-22T04:43:05;11.40;99.90
45906;DHT22;31619;49.008;12.106;2022-10-22T04:45:34;11.40;99.90
45906;DHT22;31619;49.008;12.106;2022-10-22T04:48:00;11.40;99.90
45906;DHT22;31619;49.008;12.106;2022-10-22T04:50:26;11.40;99.90
45906;DHT22;31619;49.008;12.106;2022-10-22T04:52:52;11.40;99.90
45906;DHT22;31619;49.008;12.106;2022-10-22T04:55:18;11.50;99.90
45906;DHT22;31619;49.008;12.106;2022-10-22T04:57:43;11.60;99.90
45906;DHT22;31619;49.008;12.106;2022-10-22T05:00:09;11.60;99.90
45906;DHT22;31619;49.008;12.106;2022-10-22T05:02:35;11.70;99.90
45906;DHT22;31619;49.008;12.106;2022-10-22T05:05:01;11.70;99.90
45906;DHT22;31619;49.008;12.106;2022-10-22T05:07:27;11.70;99.90
45906;DHT22;31619;49.008;12.106;2022-10-22T05:09:52;11.80;99.90
45906;DHT22;31619;49.008;12.106;2022-10-22T05:12:18;11.90;99.90
45906;DHT22;31619;49.008;12.106;2022-10-22T05:14:44;11.90;99.90
45906;DHT22;31619;49.008;12.106;2022-10-22T05:17:09;11.80;99.90
45906;DHT22;31619;49.008;12.106;2022-10-22T05:19:35;11.80;99.90
45906;DHT22;31619;49.008;12.106;2022-10-22T05:22:02;11.70;99.90
45906;DHT22;31619;49.008;12.106;2022-10-22T05:24:28;11.70;99.90
45906;DHT22;31619;49.008;12.106;2022-10-22T05:26:56;11.70;99.90
45906;DHT22;31619;49.008;12.106;2022-10-22T05:29:23;11.70;99.90
45906;DHT22;31619;49.008;12.106;2022-10-22T05:31:49;11.70;99.90
45906;DHT22;31619;49.008;12.106;2022-10-22T05:34:15;11.70;99.90
45906;DHT22;31619;49.008;12.106;2022-10-22T05:36:41;11.60;99.90
45906;DHT22;31619;49.008;12.106;2022-10-22T05:39:07;11.60;99.90
45906;DHT22;31619;49.008;12.106;2022-10-22T05:41:34;11.60;99.90
45906;DHT22;31619;49.008;12.106;2022-10-22T05:44:03;11.60;99.90
45906;DHT22;31619;49.008;12.106;2022-10-22T05:46:32;11.60;99.90
45906;DHT22;31619;49.008;12.106;2022-10-22T05:49:00;11.60;99.90
45906;DHT22;31619;49.008;12.106;2022-10-22T05:51:28;11.60;99.90
45906;DHT22;31619;49.008;12.106;2022-10-22T05:53:57;11.60;99.90
45906;DHT22;31619;49.008;12.106;2022-10-22T05:56:23;11.60;99.90
45906;DHT22;31619;49.008;12.106;2022-10-22T05:58:50;11.60;99.90
45906;DHT22;31619;49.008;12.106;2022-10-22T06:01:24;11.70;99.90
45906;DHT22;31619;49.008;12.106;2022-10-22T06:03:53;11.70;99.90
45906;DHT22;31619;49.008;12.106;2022-10-22T06:06:42;11.70;99.90
45906;DHT22;31619;49.008;12.106;2022-10-22T06:09:16;11.60;99.90
45906;DHT22;31619;49.008;12.106;2022-10-22T06:11:43;11.50;99.90
45906;DHT22;31619;49.008;12.106;2022-10-22T06:14:09;11.60;99.90
45906;DHT22;31619;49.008;12.106;2022-10-22T06:16:35;11.60;99.90
45906;DHT22;31619;49.008;12.106;2022-10-22T06:19:01;11.60;99.90
45906;DHT22;31619;49.008;12.106;2022-10-22T06:21:27;11.70;99.90
45906;DHT22;31619;49.008;12.106;2022-10-22T06:23:59;11.60;99.90
45906;DHT22;31619;49.008;12.106;2022-10-22T06:26:26;11.80;99.90
45906;DHT22;31619;49.008;12.106;2022-10-22T06:28:52;11.80;99.90
45906;DHT22;31619;49.008;12.106;2022-10-22T06:31:21;11.80;99.90
45906;DHT22;31619;49.008;12.106;2022-10-22T06:33:47;11.80;99.90
45906;DHT22;31619;49.008;12.106;2022-10-22T06:36:15;11.80;99.90
45906;DHT22;31619;49.008;12.106;2022-10-22T06:38:41;11.80;99.90
45906;DHT22;31619;49.008;12.106;2022-10-22T06:41:12;11.70;99.90
45906;DHT22;31619;49.008;12.106;2022-10-22T06:43:39;11.80;99.90
45906;DHT22;31619;49.008;12.106;2022-10-22T06:46:07;11.80;99.90
45906;DHT22;31619;49.008;12.106;2022-10-22T06:48:35;11.80;99.90
45906;DHT22;31619;49.008;12.106;2022-10-22T06:51:08;11.80;99.90
45906;DHT22;31619;49.008;12.106;2022-10-22T06:53:35;11.80;99.90
45906;DHT22;31619;49.008;12.106;2022-10-22T06:56:21;11.90;99.90
45906;DHT22;31619;49.008;12.106;2022-10-22T06:58:52;11.90;99.90
45906;DHT22;31619;49.008;12.106;2022-10-22T07:01:20;12.00;99.90
45906;DHT22;31619;49.008;12.106;2022-10-22T07:03:48;12.10;99.90
45906;DHT22;31619;49.008;12.106;2022-10-22T07:06:15;12.10;99.90
45906;DHT22;31619;49.008;12.106;2022-10-22T07:08:41;12.20;99.90
45906;DHT22;31619;49.008;12.106;2022-10-22T07:11:13;12.20;99.90
45906;DHT22;31619;49.008;12.106;2022-10-22T07:13:39;12.30;99.90
45906;DHT22;31619;49.008;12.106;2022-10-22T07:16:06;12.10;99.90
45906;DHT22;31619;49.008;12.106;2022-10-22T07:18:32;12.20;99.90
45906;DHT22;31619;49.008;12.106;2022-10-22T07:20:59;12.20;99.90
45906;DHT22;31619;49.008;12.106;2022-10-22T07:23:25;12.30;99.90
45906;DHT22;31619;49.008;12.106;2022-10-22T07:25:52;12.30;99.90
45906;DHT22;31619;49.008;12.106;2022-10-22T07:28:18;12.50;99.90
45906;DHT22;31619;49.008;12.106;2022-10-22T07:30:43;12.70;99.90
45906;DHT22;31619;49.008;12.106;2022-10-22T07:33:09;12.70;99.90
45906;DHT22;31619;49.008;12.106;2022-10-22T07:35:37;12.80;99.90
45906;DHT22;31619;49.008;12.106;2022-10-22T07:38:05;12.80;99.90
45906;DHT22;31619;49.008;12.106;2022-10-22T07:40:30;12.80;99.90
45906;DHT22;31619;49.008;12.106;2022-10-22T07:42:56;12.80;99.90
45906;DHT22;31619;49.008;12.106;2022-10-22T07:45:22;12.90;99.90
45906;DHT22;31619;49.008;12.106;2022-10-22T07:47:48;13.00;99.90
45906;DHT22;31619;49.008;12.106;2022-10-22T07:50:15;13.20;99.90
45906;DHT22;31619;49.008;12.106;2022-10-22T07:52:41;13.30;99.90
45906;DHT22;31619;49.008;12.106;2022-10-22T07:55:07;13.40;99.90
45906;DHT22;31619;49.008;12.106;2022-10-22T07:57:33;13.40;99.90
45906;DHT22;31619;49.008;12.106;2022-10-22T07:59:59;13.50;99.90
45906;DHT22;31619;49.008;12.106;2022-10-22T08:02:25;13.60;99.90
45906;DHT22;31619;49.008;12.106;2022-10-22T08:04:53;13.80;99.90
45906;DHT22;31619;49.008;12.106;2022-10-22T08:07:22;13.90;99.90
45906;DHT22;31619;49.008;12.106;2022-10-22T08:09:48;14.00;99.90
45906;DHT22;31619;49.008;12.106;2022-10-22T08:12:14;14.10;99.90
45906;DHT22;31619;49.008;12.106;2022-10-22T08:14:39;14.20;99.90
45906;DHT22;31619;49.008;12.106;2022-10-22T08:17:05;14.20;99.90
45906;DHT22;31619;49.008;12.106;2022-10-22T08:19:31;14.30;99.90
45906;DHT22;31619;49.008;12.106;2022-10-22T08:21:58;14.30;99.90
45906;DHT22;31619;49.008;12.106;2022-10-22T08:24:24;14.40;99.90
45906;DHT22;31619;49.008;12.106;2022-10-22T08:26:51;14.40;99.90
45906;DHT22;31619;49.008;12.106;2022-10-22T08:29:19;14.40;99.90
45906;DHT22;31619;49.008;12.106;2022-10-22T08:31:48;14.60;99.90
45906;DHT22;31619;49.008;12.106;2022-10-22T08:38:04;14.70;99.90
45906;DHT22;31619;49.008;12.106;2022-10-22T08:40:46;14.80;99.90
45906;DHT22;31619;49.008;12.106;2022-10-22T08:43:46;14.90;99.90
45906;DHT22;31619;49.008;12.106;2022-10-22T08:49:34;15.10;99.90
45906;DHT22;31619;49.008;12.106;2022-10-22T08:52:00;15.20;99.90
45906;DHT22;31619;49.008;12.106;2022-10-22T08:54:42;15.40;99.90
45906;DHT22;31619;49.008;12.106;2022-10-22T09:00:11;15.60;99.90
45906;DHT22;31619;49.008;12.106;2022-10-22T09:06:14;15.80;99.90
45906;DHT22;31619;49.008;12.106;2022-10-22T09:08:44;15.90;99.90
45906;DHT22;31619;49.008;12.106;2022-10-22T09:11:28;16.00;99.90
45906;DHT22;31619;49.008;12.106;2022-10-22T09:13:55;16.10;99.90
45906;DHT22;31619;49.008;12.106;2022-10-22T09:16:28;16.20;99.90
45906;DHT22;31619;49.008;12.106;2022-10-22T09:24:50;16.50;99.90
45906;DHT22;31619;49.008;12.106;2022-10-22T09:27:19;16.60;99.90
45906;DHT22;31619;49.008;12.106;2022-10-22T09:29:48;16.60;99.90
45906;DHT22;31619;49.008;12.106;2022-10-22T09:32:17;16.70;99.90
45906;DHT22;31619;49.008;12.106;2022-10-22T09:34:45;16.70;99.90
45906;DHT22;31619;49.008;12.106;2022-10-22T09:37:11;16.80;99.90
45906;DHT22;31619;49.008;12.106;2022-10-22T09:39:50;16.90;99.90
45906;DHT22;31619;49.008;12.106;2022-10-22T09:42:17;16.80;99.90
45906;DHT22;31619;49.008;12.106;2022-10-22T09:44:43;16.80;99.90
45906;DHT22;31619;49.008;12.106;2022-10-22T09:50:20;17.00;99.90
45906;DHT22;31619;49.008;12.106;2022-10-22T09:53:32;17.20;99.90
45906;DHT22;31619;49.008;12.106;2022-10-22T09:56:26;17.60;99.90
45906;DHT22;31619;49.008;12.106;2022-10-22T09:58:55;17.90;99.90
45906;DHT22;31619;49.008;12.106;2022-10-22T10:01:27;18.20;99.90
45906;DHT22;31619;49.008;12.106;2022-10-22T10:04:00;18.40;99.90
45906;DHT22;31619;49.008;12.106;2022-10-22T10:06:30;18.40;99.90
45906;DHT22;31619;49.008;12.106;2022-10-22T10:08:57;18.40;99.90
45906;DHT22;31619;49.008;12.106;2022-10-22T10:11:41;18.60;99.90
45906;DHT22;31619;49.008;12.106;2022-10-22T10:14:21;18.70;99.90
45906;DHT22;31619;49.008;12.106;2022-10-22T10:34:18;25.70;99.90
45906;DHT22;31619;49.008;12.106;2022-10-22T10:37:05;24.40;99.90
45906;DHT22;31619;49.008;12.106;2022-10-22T11:06:35;27.90;91.70
45906;DHT22;31619;49.008;12.106;2022-10-22T11:09:06;27.70;91.10
45906;DHT22;31619;49.008;12.106;2022-10-22T11:11:42;27.90;90.40
45906;DHT22;31619;49.008;12.106;2022-10-22T11:14:28;29.50;87.30
45906;DHT22;31619;49.008;12.106;2022-10-22T11:17:02;31.10;79.40
45906;DHT22;31619;49.008;12.106;2022-10-22T11:19:47;32.40;73.10
45906;DHT22;31619;49.008;12.106;2022-10-22T11:22:25;33.20;69.10
45906;DHT22;31619;49.008;12.106;2022-10-22T11:30:36;33.40;62.10
45906;DHT22;31619;49.008;12.106;2022-10-22T11:33:10;33.10;63.10
45906;DHT22;31619;49.008;12.106;2022-10-22T11:35:41;33.40;62.40
45906;DHT22;31619;49.008;12.106;2022-10-22T11:38:13;33.20;60.70
45906;DHT22;31619;49.008;12.106;2022-10-22T11:41:03;32.60;62.80
45906;DHT22;31619;49.008;12.106;2022-10-22T11:44:07;32.20;63.20
45906;DHT22;31619;49.008;12.106;2022-10-22T11:46:45;32.10;62.10
45906;DHT22;31619;49.008;12.106;2022-10-22T11:49:22;32.30;61.80
45906;DHT22;31619;49.008;12.106;2022-10-22T11:51:49;33.40;62.00
45906;DHT22;31619;49.008;12.106;2022-10-22T12:02:33;36.60;54.30
45906;DHT22;31619;49.008;12.106;2022-10-22T12:10:27;37.40;51.60
45906;DHT22;31619;49.008;12.106;2022-10-22T12:12:57;37.50;50.50
45906;DHT22;31619;49.008;12.106;2022-10-22T12:15:26;37.60;49.90
45906;DHT22;31619;49.008;12.106;2022-10-22T12:18:04;36.60;50.20
45906;DHT22;31619;49.008;12.106;2022-10-22T12:20:30;36.10;51.40
45906;DHT22;31619;49.008;12.106;2022-10-22T12:22:57;35.70;51.80
45906;DHT22;31619;49.008;12.106;2022-10-22T12:25:25;34.10;52.30
45906;DHT22;31619;49.008;12.106;2022-10-22T12:27:56;33.20;54.50
45906;DHT22;31619;49.008;12.106;2022-10-22T12:30:25;32.30;56.70
45906;DHT22;31619;49.008;12.106;2022-10-22T12:32:53;32.00;56.50
45906;DHT22;31619;49.008;12.106;2022-10-22T12:35:22;31.30;57.10
45906;DHT22;31619;49.008;12.106;2022-10-22T12:38:35;31.20;58.30
45906;DHT22;31619;49.008;12.106;2022-10-22T12:40:35;31.00;59.10
45906;DHT22;31619;49.008;12.106;2022-10-22T12:43:09;30.30;59.90
45906;DHT22;31619;49.008;12.106;2022-10-22T12:45:36;29.40;62.20
45906;DHT22;31619;49.008;12.106;2022-10-22T12:48:05;28.60;64.70
45906;DHT22;31619;49.008;12.106;2022-10-22T12:50:43;28.40;66.20
45906;DHT22;31619;49.008;12.106;2022-10-22T12:53:22;28.00;67.40
45906;DHT22;31619;49.008;12.106;2022-10-22T12:55:51;27.30;69.60
45906;DHT22;31619;49.008;12.106;2022-10-22T12:58:25;26.90;69.90
45906;DHT22;31619;49.008;12.106;2022-10-22T13:00:55;26.50;71.00
45906;DHT22;31619;49.008;12.106;2022-10-22T13:03:33;26.30;73.80
45906;DHT22;31619;49.008;12.106;2022-10-22T13:06:35;25.70;75.10
45906;DHT22;31619;49.008;12.106;2022-10-22T13:11:40;24.60;80.80
45906;DHT22;31619;49.008;12.106;2022-10-22T13:14:34;24.30;82.90
45906;DHT22;31619;49.008;12.106;2022-10-22T13:22:03;23.40;86.40
45906;DHT22;31619;49.008;12.106;2022-10-22T13:24:28;23.10;89.10
45906;DHT22;31619;49.008;12.106;2022-10-22T13:26:55;23.00;89.20
45906;DHT22;31619;49.008;12.106;2022-10-22T13:29:22;22.90;90.20
45906;DHT22;31619;49.008;12.106;2022-10-22T13:31:50;22.70;90.30
45906;DHT22;31619;49.008;12.106;2022-10-22T13:34:22;22.40;90.90
45906;DHT22;31619;49.008;12.106;2022-10-22T13:36:48;22.10;92.20
45906;DHT22;31619;49.008;12.106;2022-10-22T13:39:23;21.60;94.30
45906;DHT22;31619;49.008;12.106;2022-10-22T13:41:49;21.10;95.10
45906;DHT22;31619;49.008;12.106;2022-10-22T13:44:16;20.90;95.80
45906;DHT22;31619;49.008;12.106;2022-10-22T13:46:41;20.90;97.30
45906;DHT22;31619;49.008;12.106;2022-10-22T13:49:19;21.60;96.40
45906;DHT22;31619;49.008;12.106;2022-10-22T13:51:47;22.90;93.50
45906;DHT22;31619;49.008;12.106;2022-10-22T13:54:17;23.90;91.60
45906;DHT22;31619;49.008;12.106;2022-10-22T13:56:44;24.10;89.70
45906;DHT22;31619;49.008;12.106;2022-10-22T13:59:10;23.50;90.30
45906;DHT22;31619;49.008;12.106;2022-10-22T14:01:36;22.90;91.30
45906;DHT22;31619;49.008;12.106;2022-10-22T14:04:04;22.40;92.40
45906;DHT22;31619;49.008;12.106;2022-10-22T14:06:32;22.20;93.50
45906;DHT22;31619;49.008;12.106;2022-10-22T14:09:03;22.00;93.80
45906;DHT22;31619;49.008;12.106;2022-10-22T14:11:29;22.00;94.30
45906;DHT22;31619;49.008;12.106;2022-10-22T14:13:59;21.70;95.20
45906;DHT22;31619;49.008;12.106;2022-10-22T14:16:26;21.40;96.00
45906;DHT22;31619;49.008;12.106;2022-10-22T14:18:53;21.20;96.80
45906;DHT22;31619;49.008;12.106;2022-10-22T14:21:19;21.10;98.00
45906;DHT22;31619;49.008;12.106;2022-10-22T14:23:46;21.30;98.30
45906;DHT22;31619;49.008;12.106;2022-10-22T14:26:28;21.60;97.60
45906;DHT22;31619;49.008;12.106;2022-10-22T14:28:56;21.40;97.50
45906;DHT22;31619;49.008;12.106;2022-10-22T14:31:22;21.10;98.70
45906;DHT22;31619;49.008;12.106;2022-10-22T14:33:48;21.10;99.30
45906;DHT22;31619;49.008;12.106;2022-10-22T14:36:15;21.30;99.30
45906;DHT22;31619;49.008;12.106;2022-10-22T14:38:42;21.80;98.90
45906;DHT22;31619;49.008;12.106;2022-10-22T14:41:21;22.60;97.50
45906;DHT22;31619;49.008;12.106;2022-10-22T14:43:47;23.40;95.50
45906;DHT22;31619;49.008;12.106;2022-10-22T14:46:14;23.80;94.30
45906;DHT22;31619;49.008;12.106;2022-10-22T14:48:40;23.50;94.30
45906;DHT22;31619;49.008;12.106;2022-10-22T14:51:06;22.90;95.60
45906;DHT22;31619;49.008;12.106;2022-10-22T14:53:31;22.70;96.30
45906;DHT22;31619;49.008;12.106;2022-10-22T14:55:57;22.90;96.70
45906;DHT22;31619;49.008;12.106;2022-10-22T14:58:24;23.60;95.80
45906;DHT22;31619;49.008;12.106;2022-10-22T15:00:50;23.80;94.40
45906;DHT22;31619;49.008;12.106;2022-10-22T15:03:16;24.00;94.40
45906;DHT22;31619;49.008;12.106;2022-10-22T15:05:42;25.60;92.50
45906;DHT22;31619;49.008;12.106;2022-10-22T15:08:09;27.10;90.00
45906;DHT22;31619;49.008;12.106;2022-10-22T15:10:35;27.90;85.50
45906;DHT22;31619;49.008;12.106;2022-10-22T15:13:00;28.50;81.40
45906;DHT22;31619;49.008;12.106;2022-10-22T15:15:26;29.00;77.90
45906;DHT22;31619;49.008;12.106;2022-10-22T15:17:52;29.70;75.70
45906;DHT22;31619;49.008;12.106;2022-10-22T15:20:17;30.10;72.20
45906;DHT22;31619;49.008;12.106;2022-10-22T15:22:43;30.00;71.40
45906;DHT22;31619;49.008;12.106;2022-10-22T15:25:12;29.10;72.30
45906;DHT22;31619;49.008;12.106;2022-10-22T15:27:38;28.00;75.00
45906;DHT22;31619;49.008;12.106;2022-10-22T15:30:05;27.40;77.40
45906;DHT22;31619;49.008;12.106;2022-10-22T15:32:31;26.90;79.00
45906;DHT22;31619;49.008;12.106;2022-10-22T15:34:58;26.60;80.00
45906;DHT22;31619;49.008;12.106;2022-10-22T15:37:23;25.60;82.60
45906;DHT22;31619;49.008;12.106;2022-10-22T15:39:49;24.50;86.60
45906;DHT22;31619;49.008;12.106;2022-10-22T15:42:15;23.40;90.30
45906;DHT22;31619;49.008;12.106;2022-10-22T15:44:41;22.40;92.40
45906;DHT22;31619;49.008;12.106;2022-10-22T15:47:07;21.50;94.90
45906;DHT22;31619;49.008;12.106;2022-10-22T15:49:34;20.70;97.40
45906;DHT22;31619;49.008;12.106;2022-10-22T15:52:01;20.00;99.90
45906;DHT22;31619;49.008;12.106;2022-10-22T15:54:28;19.60;99.90
45906;DHT22;31619;49.008;12.106;2022-10-22T15:56:55;19.10;99.90
45906;DHT22;31619;49.008;12.106;2022-10-22T15:59:21;18.80;99.90
45906;DHT22;31619;49.008;12.106;2022-10-22T16:01:48;18.30;99.90
45906;DHT22;31619;49.008;12.106;2022-10-22T16:04:13;18.10;99.90
45906;DHT22;31619;49.008;12.106;2022-10-22T16:06:45;17.70;99.90
45906;DHT22;31619;49.008;12.106;2022-10-22T16:09:17;17.40;99.90
45906;DHT22;31619;49.008;12.106;2022-10-22T16:11:43;17.30;99.90
45906;DHT22;31619;49.008;12.106;2022-10-22T16:14:13;17.10;99.90
45906;DHT22;31619;49.008;12.106;2022-10-22T16:16:44;16.90;99.90
45906;DHT22;31619;49.008;12.106;2022-10-22T16:19:11;16.90;99.90
45906;DHT22;31619;49.008;12.106;2022-10-22T16:21:38;16.80;99.90
45906;DHT22;31619;49.008;12.106;2022-10-22T16:24:05;16.60;99.90
45906;DHT22;31619;49.008;12.106;2022-10-22T16:26:30;16.50;99.90
45906;DHT22;31619;49.008;12.106;2022-10-22T16:28:57;16.40;99.90
45906;DHT22;31619;49.008;12.106;2022-10-22T16:31:22;16.20;99.90
45906;DHT22;31619;49.008;12.106;2022-10-22T16:33:48;16.00;99.90
45906;DHT22;31619;49.008;12.106;2022-10-22T16:36:17;15.80;99.90
45906;DHT22;31619;49.008;12.106;2022-10-22T16:38:46;15.70;99.90
45906;DHT22;31619;49.008;12.106;2022-10-22T16:41:20;15.50;99.90
45906;DHT22;31619;49.008;12.106;2022-10-22T16:43:48;15.30;99.90
45906;DHT22;31619;49.008;12.106;2022-10-22T16:46:16;15.20;99.90
45906;DHT22;31619;49.008;12.106;2022-10-22T16:48:46;15.10;99.90
45906;DHT22;31619;49.008;12.106;2022-10-22T16:51:14;14.90;99.90
45906;DHT22;31619;49.008;12.106;2022-10-22T16:53:40;14.80;99.90
45906;DHT22;31619;49.008;12.106;2022-10-22T16:56:10;14.70;99.90
45906;DHT22;31619;49.008;12.106;2022-10-22T16:58:37;14.50;99.90
45906;DHT22;31619;49.008;12.106;2022-10-22T17:01:07;14.40;99.90
45906;DHT22;31619;49.008;12.106;2022-10-22T17:03:33;14.40;99.90
45906;DHT22;31619;49.008;12.106;2022-10-22T17:05:59;14.40;99.90
45906;DHT22;31619;49.008;12.106;2022-10-22T17:08:25;14.50;99.90
45906;DHT22;31619;49.008;12.106;2022-10-22T17:10:51;14.40;99.90
45906;DHT22;31619;49.008;12.106;2022-10-22T17:13:16;14.50;99.90
45906;DHT22;31619;49.008;12.106;2022-10-22T17:15:42;14.40;99.90
45906;DHT22;31619;49.008;12.106;2022-10-22T17:18:09;14.30;99.90
45906;DHT22;31619;49.008;12.106;2022-10-22T17:20:34;14.20;99.90
45906;DHT22;31619;49.008;12.106;2022-10-22T17:23:00;14.10;99.90
45906;DHT22;31619;49.008;12.106;2022-10-22T17:25:44;14.00;99.90
45906;DHT22;31619;49.008;12.106;2022-10-22T17:28:10;13.90;99.90